Time;durP1;ratioP1;P1;durP2;ratioP2;P2;SDS_P1;SDS_P2;PMS_P1;PMS_P2;Temp;Humidity;BMP_temperature;BMP_pressure;BME280_temperature;BME280_humidity;BME280_pressure;Samples;Min_cycle;Max_cycle;Signal;HPM_P1;HPM_P2
2022/06/14 00:01:21;;;;;;;;;;;;;;;14.86;100.00;99731.63;5095300;28;19924;-76
2022/06/14 00:03:48;;;;;;;;;;;;;;;15.12;100.00;99733.44;5095464;28;20433;-76
2022/06/14 00:06:16;;;;;;;;;;;;;;;14.85;100.00;99732.06;5077783;28;19925;-76
2022/06/14 00:08:43;;;;;;;;;;;;;;;14.72;100.00;99733.97;5095512;28;19966;-76
2022/06/14 00:11:14;;;;;;;;;;;;;;;14.62;100.00;99726.53;5093764;28;19946;-76
2022/06/14 00:13:42;;;;;;;;;;;;;;;14.27;100.00;99726.06;5095220;28;19924;-76
2022/06/14 00:16:10;;;;;;;;;;;;;;;14.38;100.00;99718.22;5077181;28;20120;-76
2022/06/14 00:18:38;;;;;;;;;;;;;;;13.96;100.00;99723.88;5095284;28;20420;-76
2022/06/14 00:21:06;;;;;;;;;;;;;;;13.89;100.00;99727.59;5095297;28;20368;-76
2022/06/14 00:23:34;;;;;;;;;;;;;;;14.09;100.00;99728.41;5110818;28;19947;-76
2022/06/14 00:26:02;;;;;;;;;;;;;;;13.97;100.00;99722.63;5095096;28;19924;-76
2022/06/14 00:28:31;;;;;;;;;;;;;;;14.10;100.00;99717.97;5077277;28;19935;-76
2022/06/14 00:31:01;;;;;;;;;;;;;;;14.14;100.00;99707.44;5076500;28;19993;-76
2022/06/14 00:33:29;;;;;;;;;;;;;;;14.30;100.00;99715.97;5076078;28;20284;-76
2022/06/14 00:36:01;;;;;;;;;;;;;;;14.44;100.00;99710.88;5095023;28;19924;-76
2022/06/14 00:38:29;;;;;;;;;;;;;;;14.21;100.00;99702.47;5094677;28;19931;-76
2022/06/14 00:40:58;;;;;;;;;;;;;;;14.16;100.00;99702.19;5094820;28;19970;-76
2022/06/14 00:43:27;;;;;;;;;;;;;;;13.99;100.00;99700.53;5095029;28;19931;-76
2022/06/14 00:46:12;;;;;;;;;;;;;;;14.35;100.00;99695.78;5076365;28;19932;-76
2022/06/14 00:48:42;;;;;;;;;;;;;;;14.04;100.00;99691.59;5076363;28;19950;-76
2022/06/14 00:51:25;;;;;;;;;;;;;;;14.66;100.00;99697.09;5094873;28;19964;-76
2022/06/14 00:53:56;;;;;;;;;;;;;;;14.25;100.00;99688.38;5094532;28;20433;-76
2022/06/14 00:56:31;;;;;;;;;;;;;;;14.54;100.00;99692.16;5076651;28;19969;-76
2022/06/14 00:59:02;;;;;;;;;;;;;;;14.83;100.00;99684.66;5076028;28;19974;-76
2022/06/14 01:01:34;;;;;;;;;;;;;;;14.52;100.00;99694.63;5094501;28;20367;-76
2022/06/14 01:04:13;;;;;;;;;;;;;;;14.32;100.00;99696.66;5094282;28;19931;-76
2022/06/14 01:06:41;;;;;;;;;;;;;;;14.59;100.00;99686.03;5094466;28;19989;-76
2022/06/14 01:09:10;;;;;;;;;;;;;;;14.43;100.00;99683.19;5094459;28;19959;-76
2022/06/14 01:11:44;;;;;;;;;;;;;;;14.48;100.00;99683.44;5109888;28;19928;-76
2022/06/14 01:14:14;;;;;;;;;;;;;;;14.72;100.00;99672.88;5076115;28;19925;-76
2022/06/14 01:16:42;;;;;;;;;;;;;;;14.57;100.00;99674.41;5094185;28;19924;-76
2022/06/14 01:19:13;;;;;;;;;;;;;;;14.45;100.00;99677.88;5076187;28;20033;-76
2022/06/14 01:21:41;;;;;;;;;;;;;;;14.13;100.00;99672.16;5094234;28;19975;-76
2022/06/14 01:24:09;;;;;;;;;;;;;;;14.41;100.00;99666.75;5076059;28;19924;-76
2022/06/14 01:26:36;;;;;;;;;;;;;;;14.56;100.00;99664.41;5094266;28;19924;-76
2022/06/14 01:29:05;;;;;;;;;;;;;;;14.43;100.00;99669.13;5093788;28;19924;-76
2022/06/14 01:31:33;;;;;;;;;;;;;;;14.39;100.00;99671.19;5093855;28;19931;-76
2022/06/14 01:34:03;;;;;;;;;;;;;;;14.48;100.00;99668.59;5075858;28;19974;-76
2022/06/14 01:36:33;;;;;;;;;;;;;;;14.70;100.00;99666.91;5075908;28;19962;-76
2022/06/14 01:39:02;;;;;;;;;;;;;;;14.49;100.00;99667.38;5076142;28;19942;-76
2022/06/14 01:41:30;;;;;;;;;;;;;;;14.63;100.00;99664.22;5075690;28;19928;-76
2022/06/14 01:44:03;;;;;;;;;;;;;;;14.93;100.00;99663.94;5093160;28;20256;-77
2022/06/14 01:46:36;;;;;;;;;;;;;;;14.83;100.00;99664.19;5093993;28;19931;-77
2022/06/14 01:52:02;;;;;;;;;;;;;;;14.83;100.00;99661.38;5059193;28;20384;-77
2022/06/14 01:54:40;;;;;;;;;;;;;;;14.57;100.00;99673.63;5093753;28;19931;-77
2022/06/14 01:57:26;;;;;;;;;;;;;;;14.76;100.00;99665.16;5093516;28;19963;-77
2022/06/14 02:00:12;;;;;;;;;;;;;;;14.79;100.00;99658.66;5093638;28;19928;-76
2022/06/14 02:02:39;;;;;;;;;;;;;;;14.78;100.00;99667.53;5093755;28;19950;-77
2022/06/14 02:05:25;;;;;;;;;;;;;;;14.75;100.00;99659.97;5093596;28;19993;-77
2022/06/14 02:07:59;;;;;;;;;;;;;;;14.10;100.00;99656.16;5093588;28;19950;-76
2022/06/14 02:10:44;;;;;;;;;;;;;;;14.62;100.00;99657.03;5093585;28;19924;-77
2022/06/14 02:13:26;;;;;;;;;;;;;;;14.98;100.00;99666.22;5093155;28;20335;-77
2022/06/14 02:16:07;;;;;;;;;;;;;;;15.24;100.00;99659.53;5093603;28;20398;-76
2022/06/14 02:18:34;;;;;;;;;;;;;;;15.45;100.00;99656.19;5092576;28;19925;-77
2022/06/14 02:21:05;;;;;;;;;;;;;;;15.49;100.00;99662.56;5059112;28;19928;-77
2022/06/14 02:23:37;;;;;;;;;;;;;;;15.55;100.00;99657.16;5093388;28;19924;-77
2022/06/14 02:26:08;;;;;;;;;;;;;;;15.20;100.00;99656.03;5092992;28;20248;-77
2022/06/14 02:28:41;;;;;;;;;;;;;;;14.58;100.00;99659.13;5093533;28;19931;-77
2022/06/14 02:31:11;;;;;;;;;;;;;;;14.46;100.00;99652.16;5093497;28;19924;-77
2022/06/14 02:33:41;;;;;;;;;;;;;;;14.34;100.00;99655.63;5093097;28;19924;-77
2022/06/14 02:36:17;;;;;;;;;;;;;;;14.66;100.00;99649.28;5075269;28;20264;-77
2022/06/14 02:38:45;;;;;;;;;;;;;;;15.00;100.00;99658.13;5075330;28;20442;-77
2022/06/14 02:41:16;;;;;;;;;;;;;;;14.21;100.00;99653.91;5093070;28;19924;-77
2022/06/14 02:43:48;;;;;;;;;;;;;;;14.06;100.00;99650.59;5093217;28;19974;-77
2022/06/14 02:46:21;;;;;;;;;;;;;;;14.17;100.00;99650.38;5075499;28;19970;-77
2022/06/14 02:48:52;;;;;;;;;;;;;;;13.84;100.00;99654.28;5064125;28;19925;-77
2022/06/14 02:51:29;;;;;;;;;;;;;;;14.35;100.00;99656.44;5051718;28;19974;-77
2022/06/14 02:54:06;;;;;;;;;;;;;;;14.57;100.00;99651.91;5053011;28;19925;-77
2022/06/14 02:56:38;;;;;;;;;;;;;;;14.79;100.00;99652.22;5054329;28;19925;-77
2022/06/14 02:59:09;;;;;;;;;;;;;;;14.92;100.00;99650.31;5056717;28;19932;-77
2022/06/14 03:01:37;;;;;;;;;;;;;;;14.48;100.00;99643.28;5056778;28;19925;-77
2022/06/14 03:04:17;;;;;;;;;;;;;;;14.79;100.00;99647.41;5056328;28;20405;-77
2022/06/14 03:07:03;;;;;;;;;;;;;;;14.96;100.00;99651.81;5055699;28;19925;-77
2022/06/14 03:09:32;;;;;;;;;;;;;;;15.15;100.00;99652.94;5056252;28;20384;-77
2022/06/14 03:12:00;;;;;;;;;;;;;;;14.77;100.00;99644.22;5056360;28;20352;-77
2022/06/14 03:14:34;;;;;;;;;;;;;;;15.00;100.00;99641.25;5056332;28;19925;-77
2022/06/14 03:17:12;;;;;;;;;;;;;;;15.19;100.00;99640.34;5056256;28;19968;-77
2022/06/14 03:19:54;;;;;;;;;;;;;;;15.09;100.00;99643.44;5056339;28;20418;-77
2022/06/14 03:22:23;;;;;;;;;;;;;;;14.29;100.00;99642.13;5056371;28;19929;-77
2022/06/14 03:24:57;;;;;;;;;;;;;;;14.21;100.00;99653.91;5054617;28;20383;-77
2022/06/14 03:27:31;;;;;;;;;;;;;;;14.00;100.00;99640.28;5056085;28;19971;-77
2022/06/14 03:30:16;;;;;;;;;;;;;;;14.54;100.00;99635.13;5056080;28;19925;-77
2022/06/14 03:32:49;;;;;;;;;;;;;;;14.86;100.00;99647.22;5056076;28;19931;-77
2022/06/14 03:35:22;;;;;;;;;;;;;;;15.14;100.00;99640.91;5055995;28;19932;-77
2022/06/14 03:37:50;;;;;;;;;;;;;;;15.32;100.00;99640.44;5055865;28;19924;-77
2022/06/14 03:40:19;;;;;;;;;;;;;;;14.96;100.00;99634.94;5054703;28;19925;-76
2022/06/14 03:42:46;;;;;;;;;;;;;;;15.09;100.00;99641.41;5055879;28;19925;-77
2022/06/14 03:45:18;;;;;;;;;;;;;;;14.98;100.00;99640.13;5055968;28;20426;-77
2022/06/14 03:47:45;;;;;;;;;;;;;;;14.52;100.00;99636.34;5055848;28;19932;-77
2022/06/14 03:50:18;;;;;;;;;;;;;;;14.60;100.00;99633.41;5094527;28;20286;-77
2022/06/14 03:52:57;;;;;;;;;;;;;;;14.97;100.00;99635.69;5077774;28;20385;-77
2022/06/14 03:55:44;;;;;;;;;;;;;;;15.10;100.00;99640.19;5078001;28;19924;-77
2022/06/14 03:58:14;;;;;;;;;;;;;;;15.35;100.00;99633.94;5077718;28;19977;-77
2022/06/14 04:01:17;;;;;;;;;;;;;;;15.46;100.00;99638.09;5077532;28;20264;-77
2022/06/14 04:03:50;;;;;;;;;;;;;;;15.52;100.00;99639.13;5033140;28;19925;-77
2022/06/14 04:07:51;;;;;;;;;;;;;;;15.59;100.00;99633.31;5091003;28;20319;-78
2022/06/14 04:10:30;;;;;;;;;;;;;;;15.35;100.00;99639.56;5090066;28;19924;-78
2022/06/14 04:13:10;;;;;;;;;;;;;;;15.10;100.00;99639.41;5089872;28;19925;-78
2022/06/14 04:15:50;;;;;;;;;;;;;;;14.76;100.00;99639.84;5090010;28;19924;-78
2022/06/14 04:18:40;;;;;;;;;;;;;;;14.26;100.00;99642.97;5091247;28;19952;-78
2022/06/14 04:21:26;;;;;;;;;;;;;;;14.31;100.00;99634.03;5089816;28;19947;-78
2022/06/14 04:23:57;;;;;;;;;;;;;;;14.29;100.00;99641.31;5089811;28;19931;-78
2022/06/14 04:26:30;;;;;;;;;;;;;;;14.67;100.00;99648.09;5090754;28;19974;-78
2022/06/14 04:28:57;;;;;;;;;;;;;;;14.93;100.00;99641.44;5090992;28;19977;-78
2022/06/14 04:31:30;;;;;;;;;;;;;;;15.16;100.00;99641.22;5091075;28;19978;-78
2022/06/14 04:34:03;;;;;;;;;;;;;;;15.27;100.00;99638.94;5090719;28;19932;-78
2022/06/14 04:36:39;;;;;;;;;;;;;;;15.40;100.00;99645.50;5090503;28;20015;-78
2022/06/14 04:39:11;;;;;;;;;;;;;;;15.46;100.00;99646.53;5090630;28;19924;-78
2022/06/14 04:41:42;;;;;;;;;;;;;;;15.11;100.00;99641.78;5090669;28;19986;-77
2022/06/14 04:44:14;;;;;;;;;;;;;;;14.67;100.00;99639.66;5090520;28;20382;-77
2022/06/14 04:46:44;;;;;;;;;;;;;;;14.82;100.00;99640.88;5090116;28;19924;-77
2022/06/14 04:49:25;;;;;;;;;;;;;;;15.26;100.00;99642.22;5090107;28;19924;-77
2022/06/14 04:51:54;;;;;;;;;;;;;;;15.17;100.00;99631.56;5090336;28;19964;-77
2022/06/14 04:54:30;;;;;;;;;;;;;;;14.75;100.00;99629.03;5089238;28;19924;-77
2022/06/14 04:57:00;;;;;;;;;;;;;;;15.01;100.00;99642.06;5090330;28;19946;-78
2022/06/14 04:59:32;;;;;;;;;;;;;;;15.26;100.00;99637.38;5089369;28;19924;-78
2022/06/14 05:02:04;;;;;;;;;;;;;;;15.14;100.00;99623.22;5090389;28;19942;-77
2022/06/14 05:04:36;;;;;;;;;;;;;;;15.18;100.00;99630.34;5089062;28;20395;-77
2022/06/14 05:07:04;;;;;;;;;;;;;;;15.07;100.00;99629.81;5104863;28;20274;-77
2022/06/14 05:09:38;;;;;;;;;;;;;;;15.20;100.00;99632.72;5092616;28;20293;-77
2022/06/14 05:12:22;;;;;;;;;;;;;;;15.06;100.00;99628.22;5109339;28;20341;-78
2022/06/14 05:15:27;;;;;;;;;;;;;;;15.10;100.00;99634.56;5071485;27;2309763;-77
2022/06/14 05:18:10;;;;;;;;;;;;;;;15.49;100.00;99634.38;5152995;27;19927;-77
2022/06/14 05:20:51;;;;;;;;;;;;;;;15.37;100.00;99628.66;5152608;27;19927;-76
2022/06/14 05:23:42;;;;;;;;;;;;;;;15.50;100.00;99635.97;5152242;27;19924;-76
2022/06/14 05:26:28;;;;;;;;;;;;;;;15.73;100.00;99635.72;5104988;27;20354;-76
2022/06/14 05:29:14;;;;;;;;;;;;;;;15.96;100.00;99629.06;5134237;27;20348;-76
2022/06/14 05:31:50;;;;;;;;;;;;;;;16.13;100.00;99627.72;5134470;27;20009;-76
2022/06/14 05:34:37;;;;;;;;;;;;;;;16.19;100.00;99635.19;5152247;27;19923;-76
2022/06/14 05:37:13;;;;;;;;;;;;;;;16.21;100.00;99627.09;5152704;27;19953;-78
2022/06/14 05:39:52;;;;;;;;;;;;;;;16.30;100.00;99634.09;5134134;27;19928;-78
2022/06/14 05:42:22;;;;;;;;;;;;;;;16.39;100.00;99623.72;5134000;27;19924;-78
2022/06/14 05:44:57;;;;;;;;;;;;;;;16.50;100.00;99629.88;5152339;27;19923;-78
2022/06/14 05:47:40;;;;;;;;;;;;;;;16.14;100.00;99630.13;5116431;27;19923;-76
2022/06/14 05:50:14;;;;;;;;;;;;;;;16.30;100.00;99626.41;5151893;27;19964;-76
2022/06/14 05:52:45;;;;;;;;;;;;;;;16.41;100.00;99629.72;5152110;27;20453;-76
2022/06/14 05:55:22;;;;;;;;;;;;;;;16.56;100.00;99627.25;5152172;27;19991;-76
2022/06/14 05:57:57;;;;;;;;;;;;;;;16.59;100.00;99632.00;5116595;27;19930;-76
2022/06/14 06:00:36;;;;;;;;;;;;;;;16.67;100.00;99627.72;5151585;27;20343;-76
2022/06/14 06:03:16;;;;;;;;;;;;;;;16.85;100.00;99616.66;5132992;27;19948;-76
2022/06/14 06:05:46;;;;;;;;;;;;;;;16.89;100.00;99620.16;5152094;27;19924;-76
2022/06/14 06:08:13;;;;;;;;;;;;;;;16.88;100.00;99629.88;5151977;27;19927;-76
2022/06/14 06:10:43;;;;;;;;;;;;;;;16.97;100.00;99621.50;5151728;27;19923;-76
2022/06/14 06:13:14;;;;;;;;;;;;;;;16.23;100.00;99624.63;5151519;27;19945;-76
2022/06/14 06:15:45;;;;;;;;;;;;;;;16.58;100.00;99624.78;5151633;27;19923;-76
2022/06/14 06:18:34;;;;;;;;;;;;;;;16.94;100.00;99622.41;5132962;27;20029;-76
2022/06/14 06:21:07;;;;;;;;;;;;;;;17.02;100.00;99626.59;5151757;27;19929;-76
2022/06/14 06:23:40;;;;;;;;;;;;;;;17.15;100.00;99630.16;5151659;27;19930;-76
2022/06/14 06:26:11;;;;;;;;;;;;;;;17.21;100.00;99628.34;5140504;27;20374;-76
2022/06/14 06:28:42;;;;;;;;;;;;;;;17.07;100.00;99617.56;5137835;27;19924;-76
2022/06/14 06:31:22;;;;;;;;;;;;;;;17.27;100.00;99632.19;5119695;27;20015;-76
2022/06/14 06:33:52;;;;;;;;;;;;;;;17.32;100.00;99621.13;5137293;27;19923;-76
2022/06/14 06:36:20;;;;;;;;;;;;;;;16.84;100.00;99632.03;5137638;27;19923;-76
2022/06/14 06:38:56;;;;;;;;;;;;;;;16.31;100.00;99630.84;5137494;27;19927;-76
2022/06/14 06:44:32;;;;;;;;;;;;;;;17.06;100.00;99638.53;5118778;27;19931;-76
2022/06/14 06:47:06;;;;;;;;;;;;;;;17.12;100.00;99637.53;5068581;27;20367;-76
2022/06/14 06:49:45;;;;;;;;;;;;;;;17.07;100.00;99634.50;5119344;27;19930;-76
2022/06/14 06:52:15;;;;;;;;;;;;;;;16.98;100.00;99637.22;5137348;27;20363;-76
2022/06/14 06:54:55;;;;;;;;;;;;;;;17.16;100.00;99635.34;5102058;27;19958;-76
2022/06/14 06:57:24;;;;;;;;;;;;;;;17.02;100.00;99632.22;5137271;27;19930;-76
2022/06/14 06:59:56;;;;;;;;;;;;;;;17.30;100.00;99636.91;5137249;27;19927;-76
2022/06/14 07:02:40;;;;;;;;;;;;;;;17.49;100.00;99635.91;5101637;27;20038;-76
2022/06/14 07:05:14;;;;;;;;;;;;;;;17.80;100.00;99631.13;5118739;27;19927;-76
2022/06/14 07:07:52;;;;;;;;;;;;;;;17.77;100.00;99630.03;5137057;27;20431;-77
2022/06/14 07:10:27;;;;;;;;;;;;;;;17.94;100.00;99633.44;5137035;27;19967;-76
2022/06/14 07:12:54;;;;;;;;;;;;;;;17.68;100.00;99631.97;5136702;27;20028;-76
2022/06/14 07:15:27;;;;;;;;;;;;;;;17.90;100.00;99627.16;5136543;27;19923;-77
2022/06/14 07:18:04;;;;;;;;;;;;;;;18.04;100.00;99629.44;5118349;27;19975;-76
2022/06/14 07:20:53;;;;;;;;;;;;;;;18.06;100.00;99626.94;5137202;27;19923;-76
2022/06/14 07:23:39;;;;;;;;;;;;;;;17.89;100.00;99625.56;5136834;27;19923;-75
2022/06/14 07:26:19;;;;;;;;;;;;;;;17.32;100.00;99628.78;5118465;27;19932;-76
2022/06/14 07:28:57;;;;;;;;;;;;;;;17.35;100.00;99633.53;5136778;27;20017;-75
2022/06/14 07:31:34;;;;;;;;;;;;;;;18.23;100.00;99625.50;5118149;27;19930;-75
2022/06/14 07:34:02;;;;;;;;;;;;;;;18.12;100.00;99621.47;5117970;27;20298;-79
2022/06/14 07:36:48;;;;;;;;;;;;;;;18.68;100.00;99624.97;5135912;27;19927;-76
2022/06/14 07:39:24;;;;;;;;;;;;;;;18.83;100.00;99620.31;5136418;27;20400;-75
2022/06/14 07:42:01;;;;;;;;;;;;;;;19.21;100.00;99620.75;5136438;27;19923;-75
2022/06/14 07:45:04;;;;;;;;;;;;;;;19.37;100.00;99617.69;5117632;27;19944;-75
2022/06/14 07:47:41;;;;;;;;;;;;;;;19.51;100.00;99605.72;5032790;28;20019;-75
2022/06/14 07:50:18;;;;;;;;;;;;;;;19.40;100.00;99605.41;5032946;28;19933;-75
2022/06/14 07:52:57;;;;;;;;;;;;;;;19.89;100.00;99605.28;5032784;28;20245;-75
2022/06/14 07:55:27;;;;;;;;;;;;;;;20.51;100.00;99595.84;5032450;28;19933;-76
2022/06/14 07:57:58;;;;;;;;;;;;;;;21.78;100.00;99587.41;5032555;28;20435;-76
2022/06/14 08:03:28;;;;;;;;;;;;;;;23.02;100.00;99582.13;5032646;28;19972;-81
2022/06/14 08:05:57;;;;;;;;;;;;;;;21.79;100.00;99565.44;5016230;28;20391;-77
2022/06/14 08:08:28;;;;;;;;;;;;;;;21.74;100.00;99574.63;5032419;28;19929;-78
2022/06/14 08:11:00;;;;;;;;;;;;;;;22.13;100.00;99573.34;5032435;28;19925;-74
2022/06/14 08:13:32;;;;;;;;;;;;;;;22.25;100.00;99570.19;5021559;28;19940;-75
2022/06/14 08:16:02;;;;;;;;;;;;;;;22.47;100.00;99567.75;5023834;28;20015;-75
2022/06/14 08:18:44;;;;;;;;;;;;;;;22.26;100.00;99554.72;5028288;28;20701;-75
2022/06/14 08:21:30;;;;;;;;;;;;;;;22.05;100.00;99561.56;5039590;28;20420;-74
2022/06/14 08:24:01;;;;;;;;;;;;;;;21.66;100.00;99562.84;5110711;28;19930;-75
2022/06/14 08:26:56;;;;;;;;;;;;;;;20.81;100.00;99571.31;5110627;28;19934;-75
2022/06/14 08:29:37;;;;;;;;;;;;;;;20.08;100.00;99569.94;5088662;28;20018;-75
2022/06/14 08:32:08;;;;;;;;;;;;;;;20.89;100.00;99556.25;5110719;28;19953;-75
2022/06/14 08:34:36;;;;;;;;;;;;;;;20.80;100.00;99555.50;5110224;28;19924;-76
2022/06/14 08:37:22;;;;;;;;;;;;;;;21.69;100.00;99547.66;5110971;28;19973;-75
2022/06/14 08:40:16;;;;;;;;;;;;;;;21.65;100.00;99544.22;5091791;28;20012;-74
2022/06/14 08:42:47;;;;;;;;;;;;;;;21.58;100.00;99540.97;5092651;28;19924;-75
2022/06/14 08:45:17;;;;;;;;;;;;;;;20.55;100.00;99555.94;5110466;28;19951;-74
2022/06/14 08:48:03;;;;;;;;;;;;;;;21.05;100.00;99557.94;5105556;27;20285;-75
2022/06/14 08:50:37;;;;;;;;;;;;;;;20.10;100.00;99547.56;5130454;27;19927;-75
2022/06/14 08:53:19;;;;;;;;;;;;;;;19.45;100.00;99546.06;5130615;27;19927;-75
2022/06/14 08:55:57;;;;;;;;;;;;;;;18.88;100.00;99552.56;5130654;27;20325;-75
2022/06/14 08:58:24;;;;;;;;;;;;;;;20.57;100.00;99559.09;5130239;27;19927;-75
2022/06/14 09:01:10;;;;;;;;;;;;;;;20.94;100.00;99534.94;5095988;27;19924;-75
2022/06/14 09:03:38;;;;;;;;;;;;;;;21.97;100.00;99540.47;5112452;27;19976;-75
2022/06/14 09:06:11;;;;;;;;;;;;;;;20.73;100.00;99524.63;5130921;27;19934;-75
2022/06/14 09:08:58;;;;;;;;;;;;;;;21.74;100.00;99524.25;5108271;28;20286;-75
2022/06/14 09:11:28;;;;;;;;;;;;;;;22.49;100.00;99516.75;5091637;28;19924;-75
2022/06/14 09:14:02;;;;;;;;;;;;;;;22.31;100.00;99519.84;5110259;28;19946;-76
2022/06/14 09:16:54;;;;;;;;;;;;;;;22.11;100.00;99519.78;5110473;28;19924;-75
2022/06/14 09:19:21;;;;;;;;;;;;;;;21.52;100.00;99515.28;5109975;28;19930;-75
2022/06/14 09:21:52;;;;;;;;;;;;;;;21.21;100.00;99520.56;5092871;28;20379;-74
2022/06/14 09:24:20;;;;;;;;;;;;;;;21.88;100.00;99512.13;5091999;28;19927;-74
2022/06/14 09:26:47;;;;;;;;;;;;;;;22.66;100.00;99497.91;5091574;28;20388;-75
2022/06/14 09:29:19;;;;;;;;;;;;;;;24.19;100.00;99496.66;5091898;28;19924;-79
2022/06/14 09:31:51;;;;;;;;;;;;;;;25.00;100.00;99497.00;5110648;28;19928;-79
2022/06/14 09:34:19;;;;;;;;;;;;;;;25.11;100.00;99486.44;5092386;28;19931;-78
2022/06/14 09:36:59;;;;;;;;;;;;;;;24.42;100.00;99492.69;5091803;28;19928;-78
2022/06/14 09:39:33;;;;;;;;;;;;;;;24.27;100.00;99494.91;5091883;28;19923;-78
2022/06/14 09:42:19;;;;;;;;;;;;;;;24.23;100.00;99497.22;5109605;28;19934;-78
2022/06/14 09:44:59;;;;;;;;;;;;;;;23.02;100.00;99499.47;5092039;28;19931;-78
2022/06/14 09:47:29;;;;;;;;;;;;;;;22.87;100.00;99502.34;5091984;28;19955;-78
2022/06/14 09:50:12;;;;;;;;;;;;;;;22.94;100.00;99506.88;5110243;28;19931;-78
2022/06/14 09:52:43;;;;;;;;;;;;;;;22.36;100.00;99501.28;5092120;28;19962;-82
2022/06/14 09:55:26;;;;;;;;;;;;;;;21.69;100.00;99505.00;5075901;28;19928;-75
2022/06/14 09:58:05;;;;;;;;;;;;;;;22.00;100.00;99511.03;5092353;28;19924;-78
2022/06/14 10:00:39;;;;;;;;;;;;;;;21.02;100.00;99508.53;5093120;28;19924;-78
2022/06/14 10:03:21;;;;;;;;;;;;;;;20.54;100.00;99515.41;5113836;28;19977;-78
2022/06/14 10:05:49;;;;;;;;;;;;;;;20.29;100.00;99527.19;5113620;28;19959;-76
2022/06/14 10:08:26;;;;;;;;;;;;;;;20.40;100.00;99513.25;5113229;28;19924;-76
2022/06/14 10:11:13;;;;;;;;;;;;;;;21.02;100.00;99511.38;5112937;28;19924;-78
2022/06/14 10:13:44;;;;;;;;;;;;;;;20.36;100.00;99517.53;5094189;28;20393;-78
2022/06/14 10:16:37;;;;;;;;;;;;;;;19.95;100.00;99524.72;5113161;28;19924;-78
2022/06/14 10:19:24;;;;;;;;;;;;;;;19.63;100.00;99528.25;5094794;28;20000;-78
2022/06/14 10:21:57;;;;;;;;;;;;;;;19.37;100.00;99539.13;5113643;28;20367;-77
2022/06/14 10:24:38;;;;;;;;;;;;;;;19.45;100.00;99540.38;5112498;28;19927;-78
2022/06/14 10:29:56;;;;;;;;;;;;;;;20.43;100.00;99539.91;5113340;28;19972;-76
2022/06/14 10:32:49;;;;;;;;;;;;;;;21.36;100.00;99521.41;5095329;28;20012;-77
2022/06/14 10:35:24;;;;;;;;;;;;;;;21.23;100.00;99512.34;5074578;28;19931;-75
2022/06/14 10:37:55;;;;;;;;;;;;;;;21.42;100.00;99513.75;5113124;28;19951;-77
2022/06/14 10:40:41;;;;;;;;;;;;;;;22.06;100.00;99505.44;5078147;28;19931;-75
2022/06/14 10:43:15;;;;;;;;;;;;;;;22.26;100.00;99503.47;5094484;27;19924;-75
2022/06/14 10:45:47;;;;;;;;;;;;;;;22.41;100.00;99509.94;5094181;28;20252;-77
2022/06/14 10:48:18;;;;;;;;;;;;;;;21.86;100.00;99508.16;5113151;28;20007;-75
2022/06/14 10:51:10;;;;;;;;;;;;;;;21.84;100.00;99507.91;5124622;27;19923;-75
2022/06/14 10:53:58;;;;;;;;;;;;;;;20.94;100.00;99509.34;5114923;27;19958;-76
2022/06/14 10:56:28;;;;;;;;;;;;;;;21.69;100.00;99504.22;5132128;27;19938;-76
2022/06/14 10:59:14;;;;;;;;;;;;;;;21.87;100.00;99506.91;5133328;27;19972;-76
2022/06/14 11:01:48;;;;;;;;;;;;;;;20.58;100.00;99504.69;5133036;27;19927;-77
2022/06/14 11:04:28;;;;;;;;;;;;;;;20.57;100.00;99503.09;5131376;27;19930;-76
2022/06/14 11:07:11;;;;;;;;;;;;;;;21.07;100.00;99512.75;5112766;27;19923;-76
2022/06/14 11:09:48;;;;;;;;;;;;;;;21.43;100.00;99492.63;5130563;27;19923;-76
2022/06/14 11:12:41;;;;;;;;;;;;;;;21.79;100.00;99497.97;5112480;27;19930;-76
2022/06/14 11:15:11;;;;;;;;;;;;;;;20.85;100.00;99509.41;5131640;27;19946;-76
2022/06/14 11:17:47;;;;;;;;;;;;;;;20.91;100.00;99513.97;5114539;27;19923;-76
2022/06/14 11:20:15;;;;;;;;;;;;;;;20.75;100.00;99505.84;5132567;27;20018;-76
2022/06/14 11:22:45;;;;;;;;;;;;;;;20.66;100.00;99507.97;5097328;27;19930;-76
2022/06/14 11:25:15;;;;;;;;;;;;;;;20.46;100.00;99499.22;5133183;27;19923;-77
2022/06/14 11:27:46;;;;;;;;;;;;;;;20.43;100.00;99494.50;5114823;27;19924;-76
2022/06/14 11:30:29;;;;;;;;;;;;;;;20.76;100.00;99487.56;5097041;27;20014;-77
2022/06/14 11:33:15;;;;;;;;;;;;;;;21.30;100.00;99481.50;5132232;27;19923;-75
2022/06/14 11:35:54;;;;;;;;;;;;;;;21.68;100.00;99489.22;5132899;27;19923;-76
2022/06/14 11:38:41;;;;;;;;;;;;;;;22.22;100.00;99479.34;5132737;27;19923;-76
2022/06/14 11:41:11;;;;;;;;;;;;;;;22.26;100.00;99475.00;5114512;27;19924;-78
2022/06/14 11:43:47;;;;;;;;;;;;;;;22.23;100.00;99476.00;5117981;27;19946;-81
2022/06/14 11:46:15;;;;;;;;;;;;;;;22.11;100.00;99473.44;5101700;27;20018;-81
2022/06/14 11:49:00;;;;;;;;;;;;;;;21.25;100.00;99470.78;5068250;27;19972;-81
2022/06/14 11:51:34;;;;;;;;;;;;;;;21.04;100.00;99471.91;5118070;27;20003;-80
2022/06/14 11:54:05;;;;;;;;;;;;;;;21.34;100.00;99475.63;5136786;27;19923;-81
2022/06/14 11:56:38;;;;;;;;;;;;;;;20.83;100.00;99467.31;5118416;27;19923;-80
2022/06/14 11:59:14;;;;;;;;;;;;;;;21.70;100.00;99469.59;5118189;27;20306;-80
2022/06/14 12:01:42;;;;;;;;;;;;;;;21.27;100.00;99473.16;5085115;27;19923;-80
2022/06/14 12:04:09;;;;;;;;;;;;;;;21.62;100.00;99465.56;5118257;27;19923;-80
2022/06/14 12:06:46;;;;;;;;;;;;;;;21.90;100.00;99461.19;5100520;27;19959;-80
2022/06/14 12:09:29;;;;;;;;;;;;;;;21.26;100.00;99460.22;5136086;27;20023;-80
2022/06/14 12:12:15;;;;;;;;;;;;;;;21.76;100.00;99456.31;5134238;27;19923;-80
2022/06/14 12:15:00;;;;;;;;;;;;;;;22.25;100.00;99449.88;5135500;27;20353;-79
2022/06/14 12:17:48;;;;;;;;;;;;;;;21.25;100.00;99458.63;5117391;27;19923;-79
2022/06/14 12:20:15;;;;;;;;;;;;;;;20.91;100.00;99453.53;5135435;27;19923;-78
2022/06/14 12:22:54;;;;;;;;;;;;;;;21.40;100.00;99448.88;5135500;27;19924;-79
2022/06/14 12:28:10;;;;;;;;;;;;;;;20.94;100.00;99432.66;5117781;27;19972;-79
2022/06/14 12:30:41;;;;;;;;;;;;;;;20.86;100.00;99431.47;5135631;27;19924;-78
2022/06/14 12:33:15;;;;;;;;;;;;;;;21.00;100.00;99430.75;5117187;27;19966;-78
2022/06/14 12:35:56;;;;;;;;;;;;;;;20.88;100.00;99426.09;5116956;27;20038;-79
2022/06/14 12:38:26;;;;;;;;;;;;;;;20.60;100.00;99430.41;5117667;27;19923;-78
2022/06/14 12:40:58;;;;;;;;;;;;;;;21.13;100.00;99422.75;5117390;27;19927;-78
2022/06/14 12:43:30;;;;;;;;;;;;;;;21.48;100.00;99426.53;5117165;27;19923;-78
2022/06/14 12:46:12;;;;;;;;;;;;;;;21.87;100.00;99425.19;5124066;27;19962;-79
2022/06/14 12:48:58;;;;;;;;;;;;;;;22.28;100.00;99414.75;5134588;27;19930;-80
2022/06/14 12:51:30;;;;;;;;;;;;;;;22.19;100.00;99417.72;5125858;27;20457;-80
2022/06/14 12:53:58;;;;;;;;;;;;;;;22.09;100.00;99417.03;5117017;27;20333;-80
2022/06/14 12:56:32;;;;;;;;;;;;;;;22.78;100.00;99402.78;5117670;27;19959;-80
2022/06/14 12:58:59;;;;;;;;;;;;;;;23.01;100.00;99409.53;5100044;27;19945;-81
2022/06/14 13:01:34;;;;;;;;;;;;;;;22.78;100.00;99408.47;5116901;27;19976;-80
2022/06/14 13:04:10;;;;;;;;;;;;;;;22.97;100.00;99398.38;5134862;27;20012;-80
2022/06/14 13:06:53;;;;;;;;;;;;;;;22.70;100.00;99401.63;5099945;28;20370;-80
2022/06/14 13:09:49;;;;;;;;;;;;;;;22.28;100.00;99398.44;5117429;27;19923;-80
2022/06/14 13:12:31;;;;;;;;;;;;;;;22.99;100.00;99420.69;5114851;28;19950;-81
2022/06/14 13:15:07;;;;;;;;;;;;;;;23.30;100.00;99408.59;5116472;28;20370;-81
2022/06/14 13:17:54;;;;;;;;;;;;;;;23.47;100.00;99418.91;5099764;28;19923;-81
2022/06/14 13:20:38;;;;;;;;;;;;;;;22.97;100.00;99418.31;5116935;28;19927;-80
2022/06/14 13:23:18;;;;;;;;;;;;;;;22.09;100.00;99424.78;5116897;28;19923;-80
2022/06/14 13:25:45;;;;;;;;;;;;;;;21.80;100.00;99414.22;5116884;28;20014;-80
2022/06/14 13:28:36;;;;;;;;;;;;;;;22.14;100.00;99413.50;5117323;28;19923;-80
2022/06/14 13:31:22;;;;;;;;;;;;;;;22.50;100.00;99410.19;5031752;28;19929;-80
2022/06/14 13:33:50;;;;;;;;;;;;;;;21.93;100.00;99411.84;5031623;28;20636;-80